Terminal Aerodrome Forecast
Issued by NWS

Home | Current Version | Previous Version | Graphics & Text | Print | Product List | Glossary On
Versions: 1 2 3 4 5 6 7 8 9 10 11 12 13 14 15 16 17 18 19 20 21 22 23 24 25 26
989
FTUS45 KGGW 241130
TAFOLF
TAF
KOLF 241130Z 2412/2512 17013KT P6SM SCT120
     FM241800 24017KT P6SM SCT090
     FM242300 27022G32KT P6SM VCSH BKN100
     FM250300 26011KT P6SM SCT140=

USA.gov is the U.S. government's official web portal to all federal, state and local government web resources and services.